createdAt,value
2023-05-23T00:04:38.141Z,10.53
2023-05-23T00:09:31.427Z,10.48
2023-05-23T00:14:25.026Z,10.48
2023-05-23T00:19:18.014Z,10.45
2023-05-23T00:24:11.218Z,10.39
2023-05-23T00:29:05.340Z,10.34
2023-05-23T00:33:58.280Z,10.22
2023-05-23T00:38:51.150Z,10.10
2023-05-23T00:43:44.813Z,10.06
2023-05-23T00:48:38.800Z,10.02
2023-05-23T00:53:32.032Z,10.00
2023-05-23T00:58:26.278Z,9.91
2023-05-23T01:03:20.200Z,9.85
2023-05-23T01:08:16.066Z,9.74
2023-05-23T01:13:49.682Z,9.71
2023-05-23T01:18:50.639Z,9.65
2023-05-23T01:24:09.919Z,9.56
2023-05-23T01:29:10.703Z,9.53
2023-05-23T01:34:03.952Z,9.47
2023-05-23T01:38:56.890Z,9.45
2023-05-23T01:43:49.902Z,9.43
2023-05-23T01:48:43.884Z,9.41
2023-05-23T01:53:37.617Z,9.37
2023-05-23T01:58:31.174Z,9.27
2023-05-23T02:03:24.290Z,9.22
2023-05-23T02:08:17.463Z,9.14
2023-05-23T02:13:10.434Z,9.12
2023-05-23T02:18:03.403Z,9.12
2023-05-23T02:22:57.096Z,9.08
2023-05-23T02:27:49.961Z,9.04
2023-05-23T02:32:42.854Z,9.02
2023-05-23T02:37:35.736Z,8.96
2023-05-23T02:42:30.879Z,8.88
2023-05-23T02:47:23.853Z,8.89
2023-05-23T02:52:17.163Z,8.87
2023-05-23T02:57:10.564Z,8.88
2023-05-23T03:02:04.963Z,8.94
2023-05-23T03:06:59.901Z,8.97
2023-05-23T03:11:52.922Z,9.01
2023-05-23T03:16:46.563Z,9.05
2023-05-23T03:21:40.260Z,9.08
2023-05-23T03:26:33.770Z,9.10
2023-05-23T03:31:26.918Z,9.17
2023-05-23T03:36:19.986Z,9.25
2023-05-23T03:41:13.102Z,9.55
2023-05-23T03:46:06.376Z,9.75
2023-05-23T03:50:59.511Z,9.94
2023-05-23T03:55:54.309Z,10.03
2023-05-23T04:00:47.895Z,10.10
2023-05-23T04:05:41.966Z,10.14
2023-05-23T04:10:36.432Z,10.21
2023-05-23T04:15:30.020Z,10.30
2023-05-23T04:20:26.170Z,10.41
2023-05-23T04:25:20.833Z,10.50
2023-05-23T04:30:25.063Z,10.56
2023-05-23T04:35:18.270Z,10.65
2023-05-23T04:40:13.628Z,10.76
2023-05-23T04:45:14.021Z,10.87
2023-05-23T04:50:25.062Z,11.00
2023-05-23T04:55:18.211Z,11.17
2023-05-23T05:00:12.976Z,11.35
2023-05-23T05:05:07.490Z,11.53
2023-05-23T05:10:01.345Z,11.72
2023-05-23T05:14:55.441Z,11.95
2023-05-23T05:19:49.139Z,12.16
2023-05-23T05:24:43.684Z,12.37
2023-05-23T05:29:37.644Z,12.56
2023-05-23T05:34:31.069Z,12.78
2023-05-23T05:39:27.004Z,13.02
2023-05-23T05:44:21.219Z,13.29
2023-05-23T05:49:14.399Z,13.56
2023-05-23T05:54:08.429Z,13.91
2023-05-23T05:59:01.558Z,14.19
2023-05-23T06:03:55.257Z,14.47
2023-05-23T06:08:48.905Z,14.92
2023-05-23T06:13:42.757Z,15.74
2023-05-23T06:18:35.858Z,16.25
2023-05-23T06:23:29.415Z,16.68
2023-05-23T06:28:22.484Z,18.55
2023-05-23T06:33:16.430Z,20.29
2023-05-23T06:38:09.625Z,20.98
2023-05-23T06:43:02.464Z,21.62
2023-05-23T06:48:06.116Z,21.27
2023-05-23T06:52:59.757Z,21.07
2023-05-23T06:57:52.690Z,21.59
2023-05-23T07:02:48.838Z,22.09
2023-05-23T07:07:44.862Z,21.77
2023-05-23T07:12:37.822Z,21.97
2023-05-23T07:17:31.596Z,22.58
2023-05-23T07:22:24.556Z,24.69
2023-05-23T07:27:18.589Z,26.13
2023-05-23T07:32:12.071Z,26.10
2023-05-23T07:37:05.237Z,26.46
2023-05-23T07:42:04.511Z,26.63
2023-05-23T07:46:58.049Z,28.01
2023-05-23T07:51:51.633Z,27.94
2023-05-23T07:56:45.344Z,29.13
2023-05-23T08:01:38.912Z,29.02
2023-05-23T08:06:33.806Z,28.51
2023-05-23T08:11:30.574Z,28.44
2023-05-23T08:16:23.854Z,29.93
2023-05-23T08:21:17.980Z,32.68
2023-05-23T08:26:11.343Z,33.81
2023-05-23T08:31:04.922Z,31.50
2023-05-23T08:35:57.937Z,31.13
2023-05-23T08:40:52.702Z,33.17
2023-05-23T08:45:47.059Z,34.86
2023-05-23T08:50:43.383Z,34.25
2023-05-23T08:55:38.790Z,31.83
2023-05-23T09:00:33.124Z,30.18
2023-05-23T09:05:27.839Z,29.02
2023-05-23T09:10:22.456Z,28.25
2023-05-23T09:15:17.527Z,29.13
2023-05-23T09:20:16.038Z,32.50
2023-05-23T09:25:14.810Z,32.94
2023-05-23T09:30:10.271Z,32.42
2023-05-23T09:35:05.504Z,33.82
2023-05-23T09:40:00.816Z,35.59
2023-05-23T09:44:55.187Z,36.04
2023-05-23T09:49:48.344Z,36.60
2023-05-23T09:54:42.005Z,36.48
2023-05-23T09:59:36.444Z,36.90
2023-05-23T10:04:32.950Z,37.43
2023-05-23T10:09:28.335Z,37.71
2023-05-23T10:14:21.319Z,36.90
2023-05-23T10:19:43.658Z,37.11
2023-05-23T10:24:37.741Z,37.18
2023-05-23T10:29:31.216Z,37.31
2023-05-23T10:34:52.443Z,35.66
2023-05-23T10:39:51.346Z,33.98
2023-05-23T10:44:44.460Z,34.31
2023-05-23T10:49:45.176Z,35.26
2023-05-23T10:54:44.139Z,35.52
2023-05-23T10:59:39.721Z,34.23
2023-05-23T11:04:32.578Z,33.54
2023-05-23T11:09:25.598Z,32.58
2023-05-23T11:14:18.503Z,31.95
2023-05-23T11:19:20.474Z,31.47
2023-05-23T11:24:13.922Z,31.27
2023-05-23T11:29:10.884Z,30.96
2023-05-23T11:34:03.909Z,30.66
2023-05-23T11:38:57.949Z,30.03
2023-05-23T11:43:52.638Z,29.35
2023-05-23T11:48:51.019Z,29.20
2023-05-23T11:53:44.906Z,29.09
2023-05-23T11:58:40.266Z,29.12
2023-05-23T12:03:34.120Z,29.22
2023-05-23T12:08:27.265Z,29.42
2023-05-23T12:13:21.448Z,29.44
2023-05-23T12:18:14.674Z,29.41
2023-05-23T12:23:07.678Z,29.61
2023-05-23T12:28:01.628Z,29.78
2023-05-23T12:32:55.225Z,29.88
2023-05-23T12:37:48.685Z,29.79
2023-05-23T12:42:54.484Z,29.64
2023-05-23T12:47:56.237Z,29.69
2023-05-23T12:52:49.805Z,29.38
2023-05-23T13:03:56.072Z,29.00
2023-05-23T13:09:22.515Z,28.71
2023-05-23T13:14:24.718Z,27.93
2023-05-23T13:19:21.033Z,27.28
2023-05-23T13:24:19.361Z,26.97
2023-05-23T13:29:12.566Z,27.13
2023-05-23T13:34:07.307Z,27.54
2023-05-23T13:39:18.134Z,27.84
2023-05-23T13:44:20.668Z,28.31
2023-05-23T13:49:24.740Z,28.56
2023-05-23T13:54:34.545Z,28.69
2023-05-23T13:59:56.638Z,28.70
2023-05-23T14:06:01.381Z,28.54
2023-05-23T15:02:22.666Z,28.14
2023-05-23T15:09:51.319Z,28.01
2023-05-23T15:35:04.328Z,27.33
2023-05-23T15:40:41.596Z,27.37
2023-05-23T15:53:14.517Z,27.10
2023-05-23T16:20:04.231Z,25.53
2023-05-23T16:32:24.097Z,25.80
2023-05-23T17:07:00.382Z,25.02
2023-05-23T18:14:10.950Z,21.42
2023-05-23T18:57:05.044Z,19.95
2023-05-23T19:01:58.693Z,19.81
2023-05-23T19:06:50.835Z,19.68
2023-05-23T19:11:42.331Z,19.58
2023-05-23T19:16:35.659Z,19.44
2023-05-23T19:21:27.743Z,19.32
2023-05-23T19:26:20.980Z,19.27
2023-05-23T19:31:13.559Z,19.21
2023-05-23T19:36:09.266Z,19.09
2023-05-23T19:41:14.400Z,18.98
2023-05-23T19:46:08.377Z,18.88
2023-05-23T19:51:00.374Z,18.73
2023-05-23T20:17:10.521Z,18.18
2023-05-23T20:23:03.048Z,18.05
2023-05-23T20:35:29.617Z,17.87
2023-05-23T20:40:43.513Z,17.86
2023-05-23T20:45:37.673Z,17.77
2023-05-23T20:50:32.124Z,17.66
2023-05-23T20:55:35.837Z,17.55
2023-05-23T21:00:29.305Z,17.41
2023-05-23T21:05:20.849Z,17.28
2023-05-23T21:10:12.475Z,17.17
2023-05-23T21:15:09.192Z,17.07
2023-05-23T21:20:00.683Z,16.95
2023-05-23T21:24:52.296Z,16.86
2023-05-23T21:29:46.206Z,16.77
2023-05-23T21:34:37.721Z,16.66
2023-05-23T21:39:47.004Z,16.59
2023-05-23T21:44:41.928Z,16.57
2023-05-23T21:49:34.786Z,16.54
2023-05-23T21:54:30.590Z,16.50
2023-05-23T21:59:24.591Z,16.46
2023-05-23T22:04:18.539Z,16.46
2023-05-23T22:09:13.664Z,16.45
2023-05-23T22:14:09.286Z,16.41
2023-05-23T22:19:18.859Z,16.36
2023-05-23T22:24:13.873Z,16.34
2023-05-23T22:29:19.883Z,16.34
2023-05-23T22:34:17.884Z,16.32
2023-05-23T22:39:20.509Z,16.32
2023-05-23T22:44:12.859Z,16.32
2023-05-23T22:49:31.126Z,16.30
2023-05-23T22:55:03.046Z,16.29
2023-05-23T23:00:15.380Z,16.25
2023-05-23T23:05:12.024Z,16.22
2023-05-23T23:10:11.517Z,16.19
2023-05-23T23:21:08.252Z,16.13
2023-05-23T23:25:59.623Z,16.11
2023-05-23T23:30:51.979Z,16.07
2023-05-23T23:35:45.857Z,16.05
2023-05-23T23:40:37.406Z,16.03
2023-05-23T23:45:28.970Z,16.00
2023-05-23T23:50:21.885Z,15.96
2023-05-23T23:55:15.254Z,15.94
